Glory Atlantic — LADA8 — position and weather

sailwx.info

Track history (hours):
 
Tides and Currents Weather Stations Pressure Air Temp Water Temp Dewpoint Dewpoint Depression Visibility Wind Speed Wind Dir Waves Ship Positions

Glory Atlantic

Last reported at 2018-Feb-22 23:57 UTC. Time now 2018-Feb-24 19:54 UTC.
Position S 37°57' E 144°55'.

Length 145 m; draft 5.8 m.

Type: Cargo ship. MMSI: 257223000.

Date/timePositionNaut miles runAvg speedWind from/ knotsBaromVisibWave heightAir tempDewpointWater temp
2018-Feb-22 23:57S 37°57' E 144°55'366 7.7
2018-Feb-21 00:23S 34°48' E 138°26'  
2018-Feb-17 08:53S 35°26' E 138°03'365 8.2
2018-Feb-15 12:11S 37°59' E 144°55'211.3
2018-Feb-15 12:00S 37°57' E 144°55'510.6
2018-Feb-15 11:29S 37°52' E 144°55'2 0.1
2018-Feb-14 09:00S 37°50' E 144°54'4 8.2
2018-Feb-14 08:30S 37°54' E 144°56'711.0
2018-Feb-14 07:54S 38°00' E 144°56'78 6.5
2018-Feb-13 19:53S 39°17' E 145°10'4 9.7
2018-Feb-13 19:30S 39°21' E 145°12'5 9.7
2018-Feb-13 19:00S 39°25' E 145°15'5 9.6
2018-Feb-13 18:30S 39°29' E 145°18'5 9.8
2018-Feb-13 17:59S 39°34' E 145°20'7 9.7
2018-Feb-13 17:17S 39°40' E 145°24'3 9.8
2018-Feb-13 17:00S 39°42' E 145°26'5 9.9
2018-Feb-13 16:30S 39°47' E 145°29'5 9.9
2018-Feb-13 15:57S 39°52' E 145°32'4 9.8
2018-Feb-13 15:30S 39°56' E 145°34'510.0
2018-Feb-13 15:00S 39°60' E 145°37'2710.3
2018-Feb-13 12:25S 40°23' E 145°54'410.6
2018-Feb-13 12:00S 40°27' E 145°57'510.7
2018-Feb-13 11:30S 40°32' E 145°60'510.8
2018-Feb-13 11:00S 40°37' E 146°03'610.8
2018-Feb-13 10:30S 40°42' E 146°06'510.9
2018-Feb-13 10:00S 40°47' E 146°10'510.9
2018-Feb-13 09:30S 40°51' E 146°13'611.1
2018-Feb-13 09:00S 40°56' E 146°16'510.8
2018-Feb-13 08:30S 41°01' E 146°19'610.4
2018-Feb-13 07:58S 41°06' E 146°23'5 4.2
2018-Feb-13 06:51S 41°11' E 146°22'0 0.0
2018-Feb-13 06:21S 41°11' E 146°22'0 0.0
2018-Feb-13 05:57S 41°11' E 146°22'0 0.0
2018-Feb-13 05:27S 41°11' E 146°22'0 0.0
2018-Feb-13 04:57S 41°11' E 146°22'0 0.0
2018-Feb-13 04:27S 41°11' E 146°22'0 0.0
2018-Feb-13 03:57S 41°11' E 146°22'0 0.0
2018-Feb-13 03:30S 41°11' E 146°22'0 0.0
2018-Feb-13 03:00S 41°11' E 146°22'0 0.0
2018-Feb-13 02:28S 41°11' E 146°22'0 0.0
2018-Feb-13 01:58S 41°11' E 146°22'0 0.0
2018-Feb-13 01:28S 41°11' E 146°22'0 0.0
2018-Feb-13 00:58S 41°11' E 146°22'0 0.0
2018-Feb-13 00:28S 41°11' E 146°22'0 0.0
2018-Feb-12 23:58S 41°11' E 146°22'  
Track history (hours):
 
Tides and Currents Weather Stations Pressure Air Temp Water Temp Dewpoint Dewpoint Depression Visibility Wind Speed Wind Dir Waves Ship Positions

Glory Atlantic

Last reported at 2018-Feb-22 23:57 UTC. Time now 2018-Feb-24 19:54 UTC.
Position S 37°57' E 144°55'.

Length 145 m; draft 5.8 m.

Type: Cargo ship. MMSI: 257223000.

Date/timePositionNaut miles runAvg speedWind from/ knotsBaromVisibWave heightAir tempDewpointWater temp
2018-Feb-22 23:57S 37°57' E 144°55'366 7.7
2018-Feb-21 00:23S 34°48' E 138°26'  
2018-Feb-17 08:53S 35°26' E 138°03'365 8.2
2018-Feb-15 12:11S 37°59' E 144°55'211.3
2018-Feb-15 12:00S 37°57' E 144°55'510.6
2018-Feb-15 11:29S 37°52' E 144°55'2 0.1
2018-Feb-14 09:00S 37°50' E 144°54'4 8.2
2018-Feb-14 08:30S 37°54' E 144°56'711.0
2018-Feb-14 07:54S 38°00' E 144°56'78 6.5
2018-Feb-13 19:53S 39°17' E 145°10'4 9.7
2018-Feb-13 19:30S 39°21' E 145°12'5 9.7
2018-Feb-13 19:00S 39°25' E 145°15'5 9.6
2018-Feb-13 18:30S 39°29' E 145°18'5 9.8
2018-Feb-13 17:59S 39°34' E 145°20'7 9.7
2018-Feb-13 17:17S 39°40' E 145°24'3 9.8
2018-Feb-13 17:00S 39°42' E 145°26'5 9.9
2018-Feb-13 16:30S 39°47' E 145°29'5 9.9
2018-Feb-13 15:57S 39°52' E 145°32'4 9.8
2018-Feb-13 15:30S 39°56' E 145°34'510.0
2018-Feb-13 15:00S 39°60' E 145°37'2710.3
2018-Feb-13 12:25S 40°23' E 145°54'410.6
2018-Feb-13 12:00S 40°27' E 145°57'510.7
2018-Feb-13 11:30S 40°32' E 145°60'510.8
2018-Feb-13 11:00S 40°37' E 146°03'610.8
2018-Feb-13 10:30S 40°42' E 146°06'510.9
2018-Feb-13 10:00S 40°47' E 146°10'510.9
2018-Feb-13 09:30S 40°51' E 146°13'611.1
2018-Feb-13 09:00S 40°56' E 146°16'510.8
2018-Feb-13 08:30S 41°01' E 146°19'610.4
2018-Feb-13 07:58S 41°06' E 146°23'5 4.2
2018-Feb-13 06:51S 41°11' E 146°22'0 0.0
2018-Feb-13 06:21S 41°11' E 146°22'0 0.0
2018-Feb-13 05:57S 41°11' E 146°22'0 0.0
2018-Feb-13 05:27S 41°11' E 146°22'0 0.0
2018-Feb-13 04:57S 41°11' E 146°22'0 0.0
2018-Feb-13 04:27S 41°11' E 146°22'0 0.0
2018-Feb-13 03:57S 41°11' E 146°22'0 0.0
2018-Feb-13 03:30S 41°11' E 146°22'0 0.0
2018-Feb-13 03:00S 41°11' E 146°22'0 0.0
2018-Feb-13 02:28S 41°11' E 146°22'0 0.0
2018-Feb-13 01:58S 41°11' E 146°22'0 0.0
2018-Feb-13 01:28S 41°11' E 146°22'0 0.0
2018-Feb-13 00:58S 41°11' E 146°22'0 0.0
2018-Feb-13 00:28S 41°11' E 146°22'0 0.0
2018-Feb-12 23:58S 41°11' E 146°22'  

Dump ship's entire track history